createdAt,value
2017-11-08T00:01:04.736Z,48.60
2017-11-08T00:03:31.417Z,42.90
2017-11-08T00:05:58.064Z,44.30
2017-11-08T00:08:24.737Z,45.33
2017-11-08T00:10:51.400Z,52.93
2017-11-08T00:13:18.057Z,41.80
2017-11-08T00:15:45.523Z,48.30
2017-11-08T00:18:12.172Z,42.90
2017-11-08T00:20:38.851Z,49.87
2017-11-08T00:23:08.484Z,55.03
2017-11-08T00:25:35.152Z,47.47
2017-11-08T00:28:01.792Z,45.57
2017-11-08T00:30:28.471Z,62.20
2017-11-08T00:32:55.121Z,42.87
2017-11-08T00:35:21.789Z,42.60
2017-11-08T00:37:48.438Z,39.47
2017-11-08T00:40:15.120Z,44.00
2017-11-08T00:42:41.769Z,46.00
2017-11-08T00:45:08.445Z,44.83
2017-11-08T00:47:35.100Z,49.17
2017-11-08T00:50:01.746Z,45.43
2017-11-08T00:52:28.423Z,44.50
2017-11-08T00:54:55.067Z,41.33
2017-11-08T00:57:27.426Z,45.20
2017-11-08T00:59:54.067Z,49.00
2017-11-08T01:02:20.740Z,44.87
2017-11-08T01:04:47.412Z,45.00
2017-11-08T01:07:14.066Z,44.67
2017-11-08T01:09:40.752Z,44.80
2017-11-08T01:12:07.401Z,40.50
2017-11-08T01:14:34.314Z,40.30
2017-11-08T01:17:00.976Z,33.07
2017-11-08T01:19:27.621Z,41.33
2017-11-08T01:21:54.288Z,39.07
2017-11-08T01:24:20.930Z,41.00
2017-11-08T01:26:47.597Z,42.43
2017-11-08T01:29:14.279Z,43.30
2017-11-08T01:31:41.331Z,34.73
2017-11-08T01:34:07.978Z,34.60
2017-11-08T01:36:34.628Z,38.07
2017-11-08T01:39:01.297Z,46.23
2017-11-08T01:41:27.969Z,50.97
2017-11-08T01:43:54.643Z,43.17
2017-11-08T01:46:21.284Z,38.87
2017-11-08T01:48:47.944Z,35.07
2017-11-08T01:51:14.609Z,39.20
2017-11-08T01:53:41.253Z,48.13
2017-11-08T01:56:07.922Z,41.80
2017-11-08T01:58:34.565Z,60.60
2017-11-08T02:01:01.630Z,38.20
2017-11-08T02:03:28.284Z,50.20
2017-11-08T02:05:54.928Z,49.67
2017-11-08T02:08:21.604Z,60.60
2017-11-08T02:10:48.276Z,52.40
2017-11-08T02:13:14.922Z,57.97
2017-11-08T02:15:41.592Z,48.90
2017-11-08T02:18:13.933Z,52.83
2017-11-08T02:20:40.577Z,54.90
2017-11-08T02:23:07.240Z,52.10
2017-11-08T02:25:33.889Z,49.40
2017-11-08T02:28:00.532Z,58.53
2017-11-08T02:30:27.212Z,53.27
2017-11-08T02:32:53.880Z,50.10
2017-11-08T02:35:20.520Z,51.13
2017-11-08T02:37:47.193Z,54.50
2017-11-08T02:40:13.980Z,46.90
2017-11-08T02:42:40.629Z,73.53
2017-11-08T02:45:07.285Z,52.17
2017-11-08T02:47:33.947Z,52.20
2017-11-08T02:50:00.600Z,51.30
2017-11-08T02:52:27.253Z,47.17
2017-11-08T02:54:59.569Z,54.60
2017-11-08T02:57:26.253Z,43.33
2017-11-08T02:59:52.904Z,47.97
2017-11-08T03:02:24.552Z,55.23
2017-11-08T03:04:51.474Z,54.33
2017-11-08T03:07:18.123Z,48.67
2017-11-08T03:09:44.807Z,62.03
2017-11-08T03:12:11.454Z,55.40
2017-11-08T03:14:38.101Z,49.13
2017-11-08T03:17:04.768Z,57.37
2017-11-08T03:19:31.423Z,47.80
2017-11-08T03:21:58.106Z,46.67
2017-11-08T03:24:24.779Z,56.67
2017-11-08T03:26:51.441Z,49.93
2017-11-08T03:29:18.105Z,48.60
2017-11-08T03:31:44.758Z,59.00
2017-11-08T03:34:11.444Z,52.07
2017-11-08T03:36:38.096Z,48.03
2017-11-08T03:39:04.895Z,71.60
2017-11-08T03:41:31.547Z,54.90
2017-11-08T03:43:58.188Z,59.40
2017-11-08T03:46:24.885Z,50.63
2017-11-08T03:48:51.539Z,54.67
2017-11-08T03:51:18.196Z,68.40
2017-11-08T03:53:44.880Z,45.13
2017-11-08T03:56:11.532Z,49.43
2017-11-08T03:58:38.198Z,65.15
2017-11-08T04:01:04.869Z,51.07
2017-11-08T04:03:31.550Z,54.03
2017-11-08T04:05:58.207Z,60.80
2017-11-08T04:08:24.880Z,73.15
2017-11-08T04:10:51.533Z,60.20
2017-11-08T04:13:18.214Z,53.47
2017-11-08T04:15:44.876Z,63.53
2017-11-08T04:18:11.520Z,71.70
2017-11-08T04:20:38.189Z,56.90
2017-11-08T04:23:04.831Z,57.07
2017-11-08T04:25:31.503Z,57.00
2017-11-08T04:27:58.150Z,55.13
2017-11-08T04:30:24.791Z,62.93
2017-11-08T04:32:51.461Z,57.10
2017-11-08T04:35:18.237Z,67.87
2017-11-08T04:37:44.909Z,61.40
2017-11-08T04:40:11.596Z,56.87
2017-11-08T04:42:38.240Z,78.55
2017-11-08T04:45:04.885Z,61.40
2017-11-08T04:47:31.549Z,60.60
2017-11-08T04:49:58.214Z,53.47
2017-11-08T04:52:24.868Z,58.70
2017-11-08T04:54:51.537Z,61.85
2017-11-08T04:57:18.196Z,64.40
2017-11-08T04:59:44.846Z,63.00
2017-11-08T05:02:11.520Z,58.40
2017-11-08T05:04:38.181Z,67.37
2017-11-08T05:07:04.868Z,56.33
2017-11-08T05:09:31.576Z,80.00
2017-11-08T05:11:58.227Z,92.43
2017-11-08T05:14:24.892Z,70.53
2017-11-08T05:16:51.561Z,74.73
2017-11-08T05:19:18.211Z,61.13
2017-11-08T05:21:44.885Z,71.47
2017-11-08T05:24:11.532Z,73.40
2017-11-08T05:26:38.205Z,98.50
2017-11-08T05:29:04.857Z,80.30
2017-11-08T05:31:31.537Z,83.67
2017-11-08T05:33:58.192Z,76.77
2017-11-08T05:36:24.841Z,74.67
2017-11-08T05:38:51.508Z,66.70
2017-11-08T05:41:18.242Z,69.40
2017-11-08T05:43:44.891Z,75.37
2017-11-08T05:46:11.555Z,77.00
2017-11-08T05:48:38.239Z,72.23
2017-11-08T05:51:05.021Z,79.60
2017-11-08T05:53:31.697Z,81.10
2017-11-08T05:55:58.356Z,79.30
2017-11-08T05:58:25.065Z,106.35
2017-11-08T06:00:51.716Z,86.27
2017-11-08T06:03:18.377Z,73.23
2017-11-08T06:05:45.056Z,103.30
2017-11-08T06:08:11.712Z,78.00
2017-11-08T06:10:38.387Z,81.43
2017-11-08T06:13:05.032Z,99.15
2017-11-08T06:15:31.708Z,87.53
2017-11-08T06:17:58.390Z,102.18
2017-11-08T06:20:25.399Z,96.25
2017-11-08T06:22:52.081Z,92.70
2017-11-08T06:25:18.744Z,88.60
2017-11-08T06:27:45.433Z,86.85
2017-11-08T06:30:12.087Z,84.53
2017-11-08T06:32:38.784Z,107.97
2017-11-08T06:35:05.466Z,105.85
2017-11-08T06:37:32.130Z,107.22
2017-11-08T06:39:58.823Z,100.38
2017-11-08T06:42:25.475Z,100.07
2017-11-08T06:44:52.337Z,105.53
2017-11-08T06:47:18.984Z,100.10
2017-11-08T06:49:45.637Z,81.80
2017-11-08T06:52:12.315Z,79.87
2017-11-08T06:54:38.974Z,88.03
2017-11-08T06:57:05.622Z,79.97
2017-11-08T06:59:32.481Z,126.00
2017-11-08T07:01:59.133Z,95.22
2017-11-08T07:04:25.781Z,84.23
2017-11-08T07:06:52.452Z,79.20
2017-11-08T07:09:19.097Z,87.83
2017-11-08T07:11:45.772Z,73.60
2017-11-08T07:14:12.434Z,77.07
2017-11-08T07:16:39.079Z,68.37
2017-11-08T07:19:05.776Z,74.43
2017-11-08T07:21:32.433Z,67.73
2017-11-08T07:23:59.082Z,74.87
2017-11-08T07:26:25.765Z,78.27
2017-11-08T07:28:52.424Z,86.45
2017-11-08T07:31:19.108Z,83.18
2017-11-08T07:33:45.754Z,78.03
2017-11-08T07:36:12.458Z,85.50
2017-11-08T07:38:39.104Z,71.57
2017-11-08T07:41:05.779Z,61.17
2017-11-08T07:43:32.465Z,80.93
2017-11-08T07:45:59.119Z,72.37
2017-11-08T07:48:25.764Z,69.13
2017-11-08T07:50:52.432Z,72.37
2017-11-08T07:53:19.101Z,67.53
2017-11-08T07:55:45.756Z,65.13
2017-11-08T07:58:12.449Z,75.63
2017-11-08T08:00:39.096Z,70.20
2017-11-08T08:03:05.745Z,75.17
2017-11-08T08:05:32.423Z,66.87
2017-11-08T08:07:59.097Z,73.83
2017-11-08T08:10:25.789Z,87.43
2017-11-08T08:12:52.440Z,78.13
2017-11-08T08:15:19.093Z,76.60
2017-11-08T08:17:45.763Z,81.03
2017-11-08T08:20:12.443Z,75.07
2017-11-08T08:22:39.109Z,71.13
2017-11-08T08:25:05.792Z,67.53
2017-11-08T08:27:32.473Z,62.40
2017-11-08T08:30:05.626Z,52.97
2017-11-08T08:32:32.309Z,79.50
2017-11-08T08:34:58.951Z,55.30
2017-11-08T08:37:25.605Z,61.63
2017-11-08T08:39:52.289Z,54.73
2017-11-08T08:42:18.940Z,69.33
2017-11-08T08:44:45.592Z,56.97
2017-11-08T08:47:12.261Z,62.80
2017-11-08T08:49:38.906Z,71.03
2017-11-08T08:52:05.551Z,71.70
2017-11-08T08:54:32.324Z,72.10
2017-11-08T08:56:58.977Z,59.10
2017-11-08T08:59:25.637Z,70.00
2017-11-08T09:01:52.297Z,62.00
2017-11-08T09:04:18.942Z,53.20
2017-11-08T09:06:45.609Z,59.80
2017-11-08T09:09:12.293Z,69.33
2017-11-08T09:11:38.966Z,63.10
2017-11-08T09:14:05.617Z,57.70
2017-11-08T09:16:32.287Z,82.43
2017-11-08T09:18:58.972Z,54.47
2017-11-08T09:21:25.644Z,57.03
2017-11-08T09:23:52.291Z,61.80
2017-11-08T09:26:21.970Z,74.73
2017-11-08T09:28:48.623Z,63.37
2017-11-08T09:31:20.789Z,74.13
2017-11-08T09:33:47.492Z,75.60
2017-11-08T09:36:15.100Z,63.00
2017-11-08T09:38:41.752Z,55.20
2017-11-08T09:41:08.407Z,66.37
2017-11-08T09:43:35.078Z,68.53
2017-11-08T09:46:01.725Z,67.30
2017-11-08T09:48:28.400Z,69.57
2017-11-08T09:50:55.052Z,66.10
2017-11-08T09:53:21.704Z,67.60
2017-11-08T09:55:52.088Z,62.07
2017-11-08T09:58:18.768Z,65.93
2017-11-08T10:00:51.009Z,96.75
2017-11-08T10:03:19.593Z,96.35
2017-11-08T10:05:46.295Z,106.33
2017-11-08T10:08:12.959Z,83.05
2017-11-08T10:10:39.668Z,71.63
2017-11-08T10:13:10.188Z,55.23
2017-11-08T10:15:39.586Z,67.40
2017-11-08T10:18:06.262Z,65.53
2017-11-08T10:20:32.921Z,57.33
2017-11-08T10:23:00.509Z,66.83
2017-11-08T10:25:27.166Z,65.50
2017-11-08T10:27:55.699Z,54.67
2017-11-08T10:30:22.396Z,78.20
2017-11-08T10:32:49.068Z,73.87
2017-11-08T10:35:15.762Z,79.17
2017-11-08T10:37:42.436Z,87.80
2017-11-08T10:40:09.088Z,65.13
2017-11-08T10:42:35.732Z,74.53
2017-11-08T10:45:02.376Z,54.50
2017-11-08T10:47:29.058Z,60.17
2017-11-08T10:49:55.753Z,81.23
2017-11-08T10:52:22.408Z,60.30
2017-11-08T10:54:49.074Z,77.07
2017-11-08T10:57:15.756Z,69.40
2017-11-08T10:59:48.237Z,87.50
2017-11-08T11:02:14.901Z,73.97
2017-11-08T11:04:41.546Z,70.83
2017-11-08T11:07:08.274Z,65.00
2017-11-08T11:09:34.933Z,71.33
2017-11-08T11:12:01.585Z,58.10
2017-11-08T11:14:28.261Z,63.30
2017-11-08T11:16:54.909Z,58.63
2017-11-08T11:19:21.556Z,65.30
2017-11-08T11:21:49.016Z,60.93
2017-11-08T11:24:15.674Z,58.43
2017-11-08T11:26:42.351Z,86.33
2017-11-08T11:29:09.055Z,56.00
2017-11-08T11:31:35.712Z,69.73
2017-11-08T11:34:02.378Z,57.77
2017-11-08T11:36:29.065Z,63.83
2017-11-08T11:38:55.742Z,66.70
2017-11-08T11:41:23.072Z,69.63
2017-11-08T11:43:49.759Z,61.63
2017-11-08T11:46:16.447Z,58.13
2017-11-08T11:48:57.987Z,62.40
2017-11-08T11:51:25.474Z,63.67
2017-11-08T11:53:52.124Z,67.70
2017-11-08T11:56:18.781Z,83.50
2017-11-08T11:58:45.476Z,99.73
2017-11-08T12:01:12.125Z,88.15
2017-11-08T12:03:38.795Z,61.47
2017-11-08T12:06:05.452Z,60.03
2017-11-08T12:08:32.153Z,81.93
2017-11-08T12:10:58.807Z,82.07
2017-11-08T12:13:25.461Z,64.03
2017-11-08T12:15:52.132Z,50.97
2017-11-08T12:18:18.785Z,68.57
2017-11-08T12:20:45.782Z,70.40
2017-11-08T12:23:12.434Z,65.95
2017-11-08T12:25:39.090Z,76.12
2017-11-08T12:28:06.025Z,69.60
2017-11-08T12:30:32.676Z,61.60
2017-11-08T12:32:59.329Z,64.40
2017-11-08T12:35:25.999Z,85.95
2017-11-08T12:37:52.689Z,46.97
2017-11-08T12:40:21.164Z,66.30
2017-11-08T12:42:49.548Z,67.68
2017-11-08T12:45:16.215Z,67.65
2017-11-08T12:47:42.871Z,68.30
2017-11-08T12:50:09.770Z,63.30
2017-11-08T12:52:36.417Z,59.00
2017-11-08T12:55:03.073Z,67.15
2017-11-08T12:57:35.390Z,64.90
2017-11-08T13:00:02.060Z,67.32
2017-11-08T13:02:28.740Z,47.30
2017-11-08T13:04:55.390Z,59.87
2017-11-08T13:07:22.062Z,74.53
2017-11-08T13:09:49.145Z,58.78
2017-11-08T13:12:15.792Z,51.58
2017-11-08T13:14:42.442Z,50.30
2017-11-08T13:17:09.134Z,56.40
2017-11-08T13:19:35.795Z,58.22
2017-11-08T13:22:02.445Z,63.75
2017-11-08T13:24:29.118Z,71.60
2017-11-08T13:26:55.778Z,61.63
2017-11-08T13:29:22.458Z,59.73
2017-11-08T13:31:49.532Z,54.92
2017-11-08T13:34:16.184Z,69.57
2017-11-08T13:36:42.835Z,46.03
2017-11-08T13:39:09.518Z,68.05
2017-11-08T13:41:36.198Z,54.60
2017-11-08T13:44:02.854Z,49.50
2017-11-08T13:46:29.511Z,56.13
2017-11-08T13:48:56.202Z,61.03
2017-11-08T13:51:22.854Z,54.90
2017-11-08T13:53:49.506Z,55.42
2017-11-08T13:56:16.201Z,49.13
2017-11-08T13:58:42.856Z,57.20
2017-11-08T14:01:09.505Z,60.35
2017-11-08T14:03:36.185Z,60.08
2017-11-08T14:06:02.853Z,63.47
2017-11-08T14:08:29.503Z,43.93
2017-11-08T14:10:56.295Z,40.43
2017-11-08T14:13:22.954Z,57.58
2017-11-08T14:15:49.618Z,56.83
2017-11-08T14:18:16.305Z,65.10
2017-11-08T14:20:42.967Z,57.80
2017-11-08T14:23:09.650Z,63.03
2017-11-08T14:25:36.300Z,46.30
2017-11-08T14:28:02.977Z,56.20
2017-11-08T14:30:29.634Z,59.30
2017-11-08T14:32:56.286Z,43.10
2017-11-08T14:35:22.965Z,56.15
2017-11-08T14:37:49.637Z,47.07
2017-11-08T14:40:16.335Z,45.77
2017-11-08T14:42:43.017Z,45.93
2017-11-08T14:45:09.666Z,50.73
2017-11-08T14:47:36.319Z,45.93
2017-11-08T14:50:03.043Z,48.53
2017-11-08T14:52:29.689Z,49.83
2017-11-08T14:54:56.384Z,63.67
2017-11-08T14:57:23.042Z,56.83
2017-11-08T14:59:49.717Z,45.53
2017-11-08T15:02:16.402Z,57.88
2017-11-08T15:04:43.060Z,60.80
2017-11-08T15:07:09.736Z,56.58
2017-11-08T15:09:36.384Z,52.17
2017-11-08T15:12:03.039Z,60.00
2017-11-08T15:14:35.342Z,60.33
2017-11-08T15:17:02.001Z,62.60
2017-11-08T15:19:28.692Z,45.30
2017-11-08T15:21:55.363Z,63.75
2017-11-08T15:24:22.024Z,58.65
2017-11-08T15:26:48.702Z,41.50
2017-11-08T15:29:15.362Z,59.25
2017-11-08T15:31:42.035Z,61.57
2017-11-08T15:34:08.718Z,65.90
2017-11-08T15:36:35.378Z,53.05
2017-11-08T15:39:02.939Z,58.85
2017-11-08T15:41:29.609Z,59.05
2017-11-08T15:43:56.296Z,49.55
2017-11-08T15:46:28.653Z,54.25
2017-11-08T15:48:55.304Z,61.97
2017-11-08T15:51:21.977Z,51.55
2017-11-08T15:53:48.670Z,48.83
2017-11-08T15:56:15.333Z,48.92
2017-11-08T15:58:41.975Z,51.80
2017-11-08T16:01:08.670Z,44.53
2017-11-08T16:03:35.332Z,43.28
2017-11-08T16:06:02.055Z,45.58
2017-11-08T16:08:31.198Z,45.28
2017-11-08T16:10:57.863Z,34.60
2017-11-08T16:13:24.543Z,35.57
2017-11-08T16:15:51.226Z,44.10
2017-11-08T16:18:17.882Z,40.70
2017-11-08T16:20:44.556Z,45.67
2017-11-08T16:23:11.227Z,53.72
2017-11-08T16:25:38.258Z,52.42
2017-11-08T16:28:04.953Z,50.50
2017-11-08T16:30:31.645Z,37.10
2017-11-08T16:32:58.341Z,47.40
2017-11-08T16:35:24.992Z,49.08
2017-11-08T16:37:51.678Z,51.00
2017-11-08T16:40:18.768Z,55.05
2017-11-08T16:42:45.560Z,45.60
2017-11-08T16:45:12.489Z,52.85
2017-11-08T16:47:39.159Z,44.45
2017-11-08T16:50:07.002Z,48.55
2017-11-08T16:52:33.694Z,30.67
2017-11-08T16:55:00.382Z,48.92
2017-11-08T16:57:28.247Z,45.23
2017-11-08T16:59:54.922Z,33.77
2017-11-08T17:02:22.203Z,39.40
2017-11-08T17:04:49.304Z,45.92
2017-11-08T17:07:16.023Z,32.47
2017-11-08T17:09:42.679Z,40.90
2017-11-08T17:12:09.841Z,46.90
2017-11-08T17:14:36.793Z,46.42
2017-11-08T17:17:03.488Z,41.65
2017-11-08T17:19:31.364Z,30.10
2017-11-08T17:21:58.039Z,37.47
2017-11-08T17:24:24.737Z,39.70
2017-11-08T17:26:51.879Z,40.12
2017-11-08T17:29:18.541Z,38.13
2017-11-08T17:31:45.217Z,27.17
2017-11-08T17:34:12.130Z,38.75
2017-11-08T17:36:39.048Z,41.13
2017-11-08T17:39:05.742Z,39.30
2017-11-08T17:41:32.392Z,38.88
2017-11-08T17:44:00.063Z,34.75
2017-11-08T17:46:27.034Z,34.42
2017-11-08T17:48:53.710Z,30.88
2017-11-08T17:51:20.398Z,43.73
2017-11-08T17:53:47.233Z,39.05
2017-11-08T17:56:13.910Z,34.55
2017-11-08T17:58:40.562Z,39.40
2017-11-08T18:01:07.241Z,30.40
2017-11-08T18:03:33.934Z,30.12
2017-11-08T18:06:00.590Z,25.13
2017-11-08T18:08:27.270Z,34.38
2017-11-08T18:10:53.933Z,32.35
2017-11-08T18:13:20.620Z,32.97
2017-11-08T18:15:47.264Z,32.53
2017-11-08T18:18:13.953Z,27.93
2017-11-08T18:20:40.648Z,37.90
2017-11-08T18:23:07.321Z,24.17
2017-11-08T18:25:33.990Z,29.23
2017-11-08T18:28:00.666Z,32.47
2017-11-08T18:30:27.458Z,29.00
2017-11-08T18:32:54.113Z,32.13
2017-11-08T18:35:20.768Z,29.70
2017-11-08T18:37:47.451Z,29.33
2017-11-08T18:40:14.112Z,31.42
2017-11-08T18:42:40.786Z,25.53
2017-11-08T18:45:07.451Z,44.00
2017-11-08T18:47:34.102Z,22.83
2017-11-08T18:50:00.774Z,26.50
2017-11-08T18:52:27.454Z,26.83
2017-11-08T18:54:54.141Z,26.13
2017-11-08T18:57:20.788Z,30.15
2017-11-08T18:59:47.438Z,27.80
2017-11-08T19:02:14.200Z,24.20
2017-11-08T19:04:40.885Z,39.67
2017-11-08T19:07:07.564Z,23.37
2017-11-08T19:09:34.273Z,22.33
2017-11-08T19:12:00.926Z,23.02
2017-11-08T19:14:27.604Z,19.40
2017-11-08T19:16:54.248Z,19.97
2017-11-08T19:19:20.929Z,19.57
2017-11-08T19:21:47.609Z,19.70
2017-11-08T19:24:14.301Z,21.20
2017-11-08T19:26:40.954Z,34.40
2017-11-08T19:29:07.654Z,24.67
2017-11-08T19:31:34.304Z,25.53
2017-11-08T19:34:00.981Z,29.90
2017-11-08T19:36:27.658Z,38.67
2017-11-08T19:38:54.461Z,24.40
2017-11-08T19:41:21.121Z,25.90
2017-11-08T19:43:47.777Z,29.87
2017-11-08T19:46:14.450Z,21.00
2017-11-08T19:48:41.148Z,19.13
2017-11-08T19:51:07.814Z,20.87
2017-11-08T19:53:34.489Z,25.07
2017-11-08T19:56:01.170Z,25.80
2017-11-08T19:58:27.830Z,20.67
2017-11-08T20:00:54.491Z,21.00
2017-11-08T20:03:21.195Z,20.50
2017-11-08T20:05:47.854Z,19.53
2017-11-08T20:08:14.529Z,19.93
2017-11-08T20:10:41.181Z,21.00
2017-11-08T20:13:07.862Z,27.30
2017-11-08T20:15:34.539Z,46.53
2017-11-08T20:18:01.193Z,33.57
2017-11-08T20:20:27.874Z,187.77
2017-11-08T20:22:54.526Z,31.87
2017-11-08T20:25:21.192Z,18.43
2017-11-08T20:27:47.865Z,18.40
2017-11-08T20:30:14.562Z,17.07
2017-11-08T20:32:41.232Z,23.33
2017-11-08T20:35:07.884Z,22.07
2017-11-08T20:37:34.559Z,18.63
2017-11-08T20:40:01.218Z,17.53
2017-11-08T20:42:27.901Z,22.53
2017-11-08T20:44:54.585Z,19.67
2017-11-08T20:47:21.278Z,21.07
2017-11-08T20:49:47.977Z,22.63
2017-11-08T20:52:14.666Z,21.63
2017-11-08T20:54:41.326Z,19.10
2017-11-08T20:57:07.986Z,17.20
2017-11-08T20:59:34.773Z,23.70
2017-11-08T21:02:01.433Z,21.00
2017-11-08T21:04:28.101Z,22.33
2017-11-08T21:06:54.757Z,18.70
2017-11-08T21:09:21.419Z,20.63
2017-11-08T21:11:48.097Z,23.90
2017-11-08T21:14:14.765Z,34.63
2017-11-08T21:16:41.429Z,22.20
2017-11-08T21:19:08.109Z,31.45
2017-11-08T21:21:34.759Z,26.10
2017-11-08T21:24:01.441Z,22.60
2017-11-08T21:26:28.150Z,24.25
2017-11-08T21:28:54.803Z,24.20
2017-11-08T21:31:21.736Z,32.95
2017-11-08T21:33:48.390Z,20.70
2017-11-08T21:36:15.048Z,29.90
2017-11-08T21:38:41.729Z,26.30
2017-11-08T21:41:08.397Z,32.35
2017-11-08T21:43:35.075Z,27.30
2017-11-08T21:46:02.827Z,25.13
2017-11-08T21:48:29.566Z,39.83
2017-11-08T21:50:56.242Z,25.73
2017-11-08T21:53:22.916Z,36.05
2017-11-08T21:55:49.591Z,25.90
2017-11-08T21:58:16.269Z,21.90
2017-11-08T22:00:42.921Z,28.20
2017-11-08T22:03:09.601Z,23.93
2017-11-08T22:05:36.333Z,26.10
2017-11-08T22:08:03.001Z,19.90
2017-11-08T22:10:29.676Z,20.80
2017-11-08T22:12:56.364Z,21.20
2017-11-08T22:15:23.030Z,19.23
2017-11-08T22:17:49.681Z,24.70
2017-11-08T22:20:16.520Z,22.33
2017-11-08T22:22:43.173Z,17.93
2017-11-08T22:25:09.857Z,23.40
2017-11-08T22:27:36.508Z,31.13
2017-11-08T22:30:03.164Z,20.07
2017-11-08T22:32:30.108Z,22.13
2017-11-08T22:34:56.782Z,25.13
2017-11-08T22:37:23.461Z,22.70
2017-11-08T22:39:50.169Z,23.60
2017-11-08T22:42:16.873Z,23.30
2017-11-08T22:44:43.552Z,20.73
2017-11-08T22:47:10.208Z,23.73
2017-11-08T22:49:36.888Z,19.63
2017-11-08T22:52:03.551Z,20.27
2017-11-08T22:54:30.212Z,24.07
2017-11-08T22:57:01.722Z,37.73
2017-11-08T22:59:28.380Z,19.93
2017-11-08T23:01:55.040Z,23.53
2017-11-08T23:04:21.715Z,26.27
2017-11-08T23:06:48.366Z,24.43
2017-11-08T23:09:15.029Z,21.17
2017-11-08T23:11:42.084Z,22.30
2017-11-08T23:14:08.736Z,27.83
2017-11-08T23:16:35.436Z,36.05
2017-11-08T23:19:02.094Z,24.70
2017-11-08T23:21:28.766Z,22.30
2017-11-08T23:23:55.422Z,29.17
2017-11-08T23:26:22.110Z,20.13
2017-11-08T23:28:48.789Z,24.27
2017-11-08T23:31:15.478Z,25.03
2017-11-08T23:33:42.130Z,20.70
2017-11-08T23:36:08.805Z,23.13
2017-11-08T23:38:35.454Z,24.90
2017-11-08T23:41:02.137Z,33.23
2017-11-08T23:43:28.792Z,19.87
2017-11-08T23:45:55.459Z,19.30
2017-11-08T23:48:22.139Z,32.95
2017-11-08T23:50:49.621Z,36.88
2017-11-08T23:53:16.273Z,25.33
2017-11-08T23:55:42.929Z,24.70
2017-11-08T23:58:09.601Z,22.87
